createdAt,value
2018-06-08T10:54:04.973Z,968.45
2018-06-08T10:55:04.961Z,968.47
2018-06-08T10:56:04.959Z,968.47
2018-06-08T10:57:04.955Z,968.44
2018-06-08T10:58:04.945Z,968.44
2018-06-08T10:59:04.950Z,968.49
2018-06-08T11:00:04.940Z,968.45
2018-06-08T11:01:04.945Z,968.42
2018-06-08T11:02:04.949Z,968.40
2018-06-08T11:03:04.936Z,968.40
2018-06-08T11:04:04.935Z,968.42
2018-06-08T11:05:04.936Z,968.29
2018-06-08T11:06:04.939Z,968.30
2018-06-08T11:07:04.944Z,968.32
2018-06-08T11:08:04.938Z,968.24
2018-06-08T11:09:04.940Z,968.26
2018-06-08T11:10:04.941Z,968.29
2018-06-08T11:11:04.954Z,968.26
2018-06-08T11:12:04.945Z,968.20
2018-06-08T11:13:04.952Z,968.21
2018-06-08T11:14:04.948Z,968.21
2018-06-08T11:15:04.952Z,968.16
2018-06-08T11:16:04.960Z,968.15
2018-06-08T11:17:04.963Z,968.18
2018-06-08T11:18:04.963Z,968.18
2018-06-08T11:19:04.964Z,968.15
2018-06-08T11:20:04.968Z,968.13
2018-06-08T11:21:04.980Z,968.12
2018-06-08T11:22:04.976Z,968.12
2018-06-08T11:23:04.988Z,968.08
2018-06-08T11:24:04.982Z,968.05
2018-06-08T11:25:04.981Z,968.03
2018-06-08T11:26:04.997Z,968.04
2018-06-08T11:27:04.997Z,968.00
2018-06-08T11:28:04.995Z,968.02
2018-06-08T11:29:04.994Z,967.99
2018-06-08T11:30:05.000Z,968.02
2018-06-08T11:31:05.009Z,967.97
2018-06-08T11:32:05.006Z,967.95
2018-06-08T11:33:05.009Z,967.94
2018-06-08T11:34:05.017Z,967.89
2018-06-08T11:35:05.015Z,967.84
2018-06-08T11:36:05.024Z,967.83
2018-06-08T11:37:05.024Z,967.84
2018-06-08T11:38:05.027Z,967.82
2018-06-08T11:39:05.031Z,967.81
2018-06-08T11:40:05.037Z,967.83
2018-06-08T11:41:05.041Z,967.77
2018-06-08T11:42:05.045Z,967.77
2018-06-08T11:43:05.064Z,967.72
2018-06-08T11:44:05.066Z,967.69
2018-06-08T11:45:05.058Z,967.66
2018-06-08T11:46:05.067Z,967.69
2018-06-08T11:47:05.070Z,967.65
2018-06-08T11:48:05.075Z,967.62
2018-06-08T11:49:05.077Z,967.62
2018-06-08T11:50:05.084Z,967.60
2018-06-08T11:51:05.083Z,967.56
2018-06-08T11:52:05.090Z,967.57
2018-06-08T11:53:05.099Z,967.56
2018-06-08T11:54:05.108Z,967.51
2018-06-08T12:11:57.638Z,967.35
2018-06-08T12:12:57.624Z,967.35
2018-06-08T12:13:57.628Z,967.33
2018-06-08T12:14:57.627Z,967.33
2018-06-08T12:15:57.625Z,967.30
2018-06-08T12:16:57.625Z,967.30
2018-06-08T12:17:57.626Z,967.33
2018-06-08T12:18:57.631Z,967.27
2018-06-08T12:19:57.634Z,967.37
2018-06-08T12:20:57.628Z,967.31
2018-06-08T12:21:57.632Z,967.29
2018-06-08T12:22:57.636Z,967.31
2018-06-08T12:23:57.640Z,967.32
2018-06-08T12:24:57.646Z,967.29
2018-06-08T12:25:57.641Z,967.26
2018-06-08T12:26:57.641Z,967.28
2018-06-08T12:27:57.645Z,967.24
2018-06-08T12:28:57.654Z,967.26
2018-06-08T12:29:57.652Z,967.27
2018-06-08T12:30:57.662Z,967.23
2018-06-08T12:31:57.762Z,967.22
2018-06-08T12:32:57.664Z,967.22
2018-06-08T12:33:57.671Z,967.23
2018-06-08T12:34:57.677Z,967.18
2018-06-08T12:35:57.672Z,967.19
2018-06-08T12:36:57.681Z,967.22
2018-06-08T12:37:57.683Z,967.22
2018-06-08T12:38:57.697Z,967.20
2018-06-08T12:39:57.693Z,967.18
2018-06-08T12:40:57.708Z,967.15
2018-06-08T12:41:57.702Z,967.13
2018-06-08T12:42:57.701Z,967.12
2018-06-08T12:43:57.730Z,967.08
2018-06-08T12:44:57.718Z,967.03
2018-06-08T12:45:57.712Z,967.05
2018-06-08T12:46:57.720Z,967.00
2018-06-08T12:47:57.726Z,966.96
2018-06-08T12:48:57.774Z,966.98
2018-06-08T12:49:57.727Z,966.92
2018-06-08T12:50:57.739Z,966.96
2018-06-08T12:51:57.746Z,966.97
2018-06-08T12:52:57.742Z,966.94
2018-06-08T12:53:57.756Z,966.93
2018-06-08T12:54:57.754Z,966.92
2018-06-08T12:55:57.758Z,966.93
2018-06-08T12:56:57.762Z,966.89
2018-06-08T12:57:57.770Z,966.89
2018-06-08T12:58:57.777Z,966.90
2018-06-08T12:59:57.775Z,966.87
2018-06-08T13:00:57.794Z,966.86
2018-06-08T13:01:57.800Z,966.85
2018-06-08T13:02:57.786Z,966.87
2018-06-08T13:03:57.799Z,966.84
2018-06-08T13:04:57.804Z,966.84
2018-06-08T13:05:57.809Z,966.77
2018-06-08T13:06:57.808Z,966.80
2018-06-08T13:07:57.817Z,966.78
2018-06-08T13:08:57.821Z,966.74
2018-06-08T13:09:57.822Z,966.75
2018-06-08T13:10:57.839Z,966.74
2018-06-08T13:11:57.837Z,966.71
2018-06-08T13:12:57.838Z,966.69
2018-06-08T13:13:57.841Z,966.72
2018-06-08T13:14:57.846Z,966.71
2018-06-08T13:15:57.853Z,966.74
2018-06-08T13:16:57.888Z,966.76
2018-06-08T13:17:57.875Z,966.78
2018-06-08T13:18:57.881Z,966.77
2018-06-08T13:19:57.878Z,966.83
2018-06-08T13:20:57.879Z,966.86
2018-06-08T13:21:57.888Z,966.85
2018-06-08T13:22:57.883Z,966.86
2018-06-08T13:23:57.897Z,966.81
2018-06-08T13:24:57.919Z,966.80
2018-06-08T13:25:57.904Z,966.78
2018-06-08T13:26:57.909Z,966.83
2018-06-08T13:27:57.918Z,966.79
2018-06-08T13:28:57.930Z,966.78
2018-06-08T13:29:57.920Z,966.79
2018-06-08T13:30:57.925Z,966.78
2018-06-08T13:31:57.936Z,966.77
2018-06-08T13:32:57.977Z,966.75
2018-06-08T13:33:57.938Z,966.76
2018-06-08T13:34:57.942Z,967.21
2018-06-08T13:35:57.955Z,967.14
2018-06-08T13:36:57.959Z,966.82
2018-06-08T13:37:57.964Z,966.74
2018-06-08T13:38:57.964Z,966.71
2018-06-08T13:39:57.972Z,966.72
2018-06-08T13:40:57.969Z,966.70
2018-06-08T13:41:57.974Z,966.67
2018-06-08T13:42:57.978Z,966.62
2018-06-08T13:43:57.988Z,966.66
2018-06-08T13:44:57.990Z,966.60
2018-06-08T13:45:57.992Z,966.52
2018-06-08T13:46:57.986Z,966.51
2018-06-08T13:47:57.988Z,966.55
2018-06-08T13:48:57.996Z,966.54
2018-06-08T13:49:58.001Z,966.55
2018-06-08T13:50:58.014Z,966.69
2018-06-08T13:51:58.013Z,966.69
2018-06-08T13:52:58.051Z,966.70
2018-06-08T13:53:58.008Z,966.75
2018-06-08T13:54:58.017Z,966.64
2018-06-08T13:55:58.016Z,966.65
2018-06-08T13:56:58.028Z,966.69
2018-06-08T13:57:58.026Z,966.67
2018-06-08T13:58:58.036Z,966.74
2018-06-08T13:59:58.036Z,966.67
2018-06-08T14:00:58.036Z,966.61
2018-06-08T14:01:58.040Z,966.59
2018-06-08T14:02:58.037Z,966.62
2018-06-08T14:03:58.044Z,966.64
2018-06-08T14:04:58.048Z,966.58
2018-06-08T14:05:58.043Z,966.63
2018-06-08T14:06:58.048Z,966.65
2018-06-08T14:07:58.056Z,966.70
2018-06-08T14:08:58.056Z,966.71
2018-06-08T14:09:58.053Z,966.68
2018-06-08T14:10:58.064Z,966.72
2018-06-08T14:11:58.061Z,966.73
2018-06-08T14:12:58.068Z,966.76
2018-06-08T14:13:58.064Z,966.78
2018-06-08T14:14:58.072Z,966.73
2018-06-08T14:15:58.065Z,966.78
2018-06-08T14:16:58.072Z,966.63
2018-06-08T14:17:58.066Z,966.77
2018-06-08T14:18:58.078Z,966.81
2018-06-08T14:19:58.077Z,966.76
2018-06-08T14:20:58.135Z,966.78
2018-06-08T14:21:58.073Z,966.79
2018-06-08T14:22:58.080Z,966.87
2018-06-08T14:23:58.079Z,966.85
2018-06-08T14:24:58.079Z,966.94
2018-06-08T14:25:58.085Z,966.99
2018-06-08T14:26:58.088Z,967.01
2018-06-08T14:27:58.080Z,967.05
2018-06-08T14:28:58.078Z,967.06
2018-06-08T14:29:58.083Z,967.12
2018-06-08T14:30:58.091Z,967.18
2018-06-08T14:31:58.086Z,967.16
2018-06-08T14:32:58.099Z,967.18
2018-06-08T14:33:58.083Z,967.22
2018-06-08T14:34:58.092Z,967.23
2018-06-08T14:35:58.084Z,967.18
2018-06-08T14:36:58.091Z,967.09
2018-06-08T14:37:58.085Z,967.02
2018-06-08T14:38:58.088Z,967.03
2018-06-08T14:39:58.096Z,967.07
2018-06-08T14:40:58.089Z,967.09
2018-06-08T14:41:58.091Z,967.13
2018-06-08T14:42:58.087Z,967.14
2018-06-08T14:43:58.101Z,967.17
2018-06-08T14:44:58.087Z,967.17
2018-06-08T14:45:58.115Z,967.14
2018-06-08T14:46:58.096Z,967.17
2018-06-08T14:47:58.090Z,967.22
2018-06-08T14:48:58.088Z,967.25
2018-06-08T14:49:58.091Z,967.23
2018-06-08T14:50:58.093Z,967.27
2018-06-08T14:51:58.103Z,967.27
2018-06-08T14:52:58.099Z,967.24
2018-06-08T14:53:58.093Z,967.23
2018-06-08T14:54:58.101Z,967.29
2018-06-08T14:55:58.092Z,967.28
2018-06-08T14:56:58.093Z,967.33
2018-06-08T14:57:58.090Z,967.32
2018-06-08T14:58:58.125Z,967.35
2018-06-08T14:59:58.089Z,967.36
2018-06-08T15:00:58.097Z,967.32
2018-06-08T15:01:58.094Z,967.36
2018-06-08T15:02:58.098Z,967.32
2018-06-08T15:03:58.107Z,967.29
2018-06-08T15:04:58.099Z,967.26
2018-06-08T15:05:58.096Z,967.25
2018-06-08T15:06:58.099Z,967.24
2018-06-08T15:07:58.092Z,967.25
2018-06-08T15:08:58.094Z,967.26
2018-06-08T15:09:58.101Z,967.34
2018-06-08T15:10:58.098Z,967.38
2018-06-08T15:11:58.098Z,967.42
2018-06-08T15:12:58.096Z,967.47
2018-06-08T15:13:58.119Z,967.54
2018-06-08T15:14:58.104Z,967.60
2018-06-08T15:15:58.102Z,967.62
2018-06-08T15:16:58.092Z,967.63
2018-06-08T15:17:58.096Z,967.66
2018-06-08T15:18:58.142Z,967.64
2018-06-08T15:19:58.096Z,967.59
2018-06-08T15:20:58.095Z,967.59
2018-06-08T15:21:58.107Z,967.55
2018-06-08T15:22:58.102Z,967.55
2018-06-08T15:23:58.113Z,967.53
2018-06-08T15:24:58.098Z,967.51
2018-06-08T15:25:58.107Z,967.47
2018-06-08T15:26:58.101Z,967.45
2018-06-08T15:27:58.111Z,967.47
2018-06-08T15:28:58.130Z,967.45
2018-06-08T15:29:58.104Z,967.48
2018-06-08T15:30:58.102Z,967.44
2018-06-08T15:31:58.099Z,967.41
2018-06-08T15:32:58.101Z,967.44
2018-06-08T15:33:58.108Z,967.37
2018-06-08T15:34:58.121Z,967.33
2018-06-08T15:35:58.110Z,967.34
2018-06-08T15:36:58.098Z,967.31
2018-06-08T15:37:58.105Z,967.30
2018-06-08T15:38:58.109Z,967.29
2018-06-08T15:39:58.097Z,967.24
2018-06-08T15:40:58.099Z,967.25
2018-06-08T15:41:58.107Z,967.19
2018-06-08T15:42:58.113Z,967.21
2018-06-08T15:43:58.106Z,967.24
2018-06-08T15:44:58.100Z,967.27
2018-06-08T15:45:58.101Z,967.31
2018-06-08T15:46:58.102Z,967.31
2018-06-08T15:47:58.098Z,967.33
2018-06-08T15:48:58.103Z,967.34
2018-06-08T15:49:58.101Z,967.32
2018-06-08T15:50:58.103Z,967.39
2018-06-08T15:51:58.094Z,967.37
2018-06-08T15:52:58.109Z,967.36
2018-06-08T15:53:58.101Z,967.38
2018-06-08T15:54:58.095Z,967.30
2018-06-08T15:55:58.101Z,967.30
2018-06-08T15:56:58.094Z,967.24
2018-06-08T15:57:58.091Z,967.22
2018-06-08T15:58:58.094Z,967.16
2018-06-08T15:59:58.094Z,967.12
2018-06-08T16:00:58.151Z,967.12
2018-06-08T16:01:58.090Z,967.11
2018-06-08T16:02:58.095Z,967.03
2018-06-08T16:03:58.093Z,967.02
2018-06-08T16:04:58.085Z,966.97
2018-06-08T16:05:58.092Z,966.98
2018-06-08T16:06:58.093Z,966.94
2018-06-08T16:07:58.088Z,966.92
2018-06-08T16:08:58.084Z,966.89
2018-06-08T16:09:58.084Z,966.87
2018-06-08T16:10:58.093Z,966.87
2018-06-08T16:11:58.081Z,966.91
2018-06-08T16:12:58.082Z,966.90
2018-06-08T16:13:58.083Z,966.95
2018-06-08T16:14:58.083Z,966.94
2018-06-08T16:15:58.088Z,966.97
2018-06-08T16:16:58.117Z,967.02
2018-06-08T16:17:58.080Z,967.06
2018-06-08T16:18:58.077Z,967.14
2018-06-08T16:19:58.078Z,967.20
2018-06-08T16:20:58.077Z,967.22
2018-06-08T16:21:58.083Z,967.30
2018-06-08T16:22:58.078Z,967.33
2018-06-08T16:23:58.079Z,967.36
2018-06-08T16:24:58.078Z,967.41
2018-06-08T16:25:58.083Z,967.43
2018-06-08T16:26:58.081Z,967.42
2018-06-08T16:27:58.084Z,967.51
2018-06-08T16:28:58.070Z,967.49
2018-06-08T16:29:58.120Z,967.47
2018-06-08T16:30:58.079Z,967.45
2018-06-08T16:31:58.071Z,967.44
2018-06-08T16:32:58.076Z,967.43
2018-06-08T16:33:58.072Z,967.45
2018-06-08T16:34:58.076Z,967.46
2018-06-08T16:35:58.066Z,967.47
2018-06-08T16:36:58.070Z,967.50
2018-06-08T16:37:58.065Z,967.49
2018-06-08T16:38:58.069Z,967.56
2018-06-08T16:39:58.058Z,967.55
2018-06-08T16:40:58.056Z,967.57
2018-06-08T16:41:58.056Z,967.56
2018-06-08T16:42:58.061Z,967.61
2018-06-08T16:43:58.053Z,967.62
2018-06-08T16:44:58.065Z,967.64
2018-06-08T16:45:58.055Z,967.64
2018-06-08T16:46:58.055Z,967.67
2018-06-08T16:47:58.052Z,967.66
2018-06-08T16:48:58.063Z,967.68
2018-06-08T16:49:58.061Z,967.69
2018-06-08T16:50:58.053Z,967.69
2018-06-08T16:51:58.051Z,967.75
2018-06-08T16:52:58.055Z,967.78
2018-06-08T16:53:58.056Z,967.81
2018-06-08T16:54:58.049Z,967.83
2018-06-08T16:55:58.047Z,967.86
2018-06-08T16:56:58.051Z,967.88
2018-06-08T16:57:58.060Z,967.90
2018-06-08T16:58:58.051Z,967.92
2018-06-08T16:59:58.045Z,967.92
2018-06-08T17:00:58.046Z,967.96
2018-06-08T17:01:58.054Z,967.93
2018-06-08T17:02:58.049Z,967.96
2018-06-08T17:03:58.043Z,967.96
2018-06-08T17:04:58.040Z,967.97
2018-06-08T17:05:58.044Z,967.95
2018-06-08T17:06:58.044Z,967.99
2018-06-08T17:07:58.038Z,967.96
2018-06-08T17:08:58.038Z,967.96
2018-06-08T17:09:58.052Z,967.96
2018-06-08T17:10:58.049Z,967.93
2018-06-08T17:11:58.045Z,967.89
2018-06-08T17:12:58.048Z,967.81
2018-06-08T17:13:58.033Z,967.78
2018-06-08T17:14:58.039Z,967.75
2018-06-08T17:15:58.032Z,967.73
2018-06-08T17:16:58.033Z,967.67
2018-06-08T17:17:58.068Z,967.68
2018-06-08T17:18:58.033Z,967.68
2018-06-08T17:19:58.047Z,967.68
2018-06-08T17:20:58.033Z,967.62
2018-06-08T17:21:58.031Z,967.61
2018-06-08T17:22:58.026Z,967.63
2018-06-08T17:23:58.026Z,967.58
2018-06-08T17:24:58.026Z,967.58
2018-06-08T17:25:58.029Z,967.59
2018-06-08T17:26:58.031Z,967.56
2018-06-08T17:27:58.029Z,967.62
2018-06-08T17:28:58.021Z,967.60
2018-06-08T17:29:58.020Z,967.65
2018-06-08T17:30:58.020Z,967.64
2018-06-08T17:31:58.029Z,967.67
2018-06-08T17:32:58.016Z,967.66
2018-06-08T17:33:58.024Z,967.68
2018-06-08T17:34:58.023Z,967.64
2018-06-08T17:35:58.024Z,967.62
2018-06-08T17:36:58.017Z,967.65
2018-06-08T17:37:58.013Z,967.70
2018-06-08T17:38:58.013Z,967.74
2018-06-08T17:39:58.013Z,967.77
2018-06-08T17:40:58.012Z,967.78
2018-06-08T17:41:58.015Z,967.84
2018-06-08T17:42:58.008Z,967.86
2018-06-08T17:43:58.015Z,967.91
2018-06-08T17:44:58.011Z,967.92
2018-06-08T17:45:58.003Z,967.95
2018-06-08T17:46:58.003Z,967.96
2018-06-08T17:47:58.001Z,968.00
2018-06-08T17:48:58.000Z,967.99
2018-06-08T17:49:58.016Z,967.97
2018-06-08T17:50:58.006Z,967.98
2018-06-08T17:51:58.000Z,968.01
2018-06-08T17:52:58.005Z,968.05
2018-06-08T17:53:58.002Z,968.08
2018-06-08T17:54:57.995Z,968.08
2018-06-08T17:55:58.002Z,968.11
2018-06-08T17:56:58.003Z,968.11
2018-06-08T17:57:57.991Z,968.11
2018-06-08T17:58:57.990Z,968.12
2018-06-08T17:59:57.996Z,968.17
2018-06-08T18:00:58.263Z,968.13
2018-06-08T18:01:57.997Z,968.14
2018-06-08T18:02:57.991Z,968.19
2018-06-08T18:03:57.985Z,968.22
2018-06-08T18:04:57.989Z,968.19
2018-06-08T18:05:57.985Z,968.24
2018-06-08T18:06:57.991Z,968.23
2018-06-08T18:07:57.987Z,968.24
2018-06-08T18:08:57.980Z,968.30
2018-06-08T18:09:57.988Z,968.33
2018-06-08T18:10:57.978Z,968.36
2018-06-08T18:11:58.055Z,968.38
2018-06-08T18:12:57.976Z,968.43
2018-06-08T18:13:57.973Z,968.48
2018-06-08T18:14:57.976Z,968.57
2018-06-08T18:15:57.981Z,968.57
2018-06-08T18:16:57.974Z,968.60
2018-06-08T18:17:58.012Z,968.59
2018-06-08T18:18:57.977Z,968.63
2018-06-08T18:19:57.966Z,968.69
2018-06-08T18:20:57.970Z,968.74
2018-06-08T18:21:57.970Z,968.75
2018-06-08T18:22:57.971Z,968.81
2018-06-08T18:23:57.966Z,968.84
2018-06-08T18:24:57.959Z,968.87
2018-06-08T18:25:57.960Z,968.88
2018-06-08T18:26:57.961Z,968.86
2018-06-08T18:27:57.959Z,968.80
2018-06-08T18:28:57.961Z,968.84
2018-06-08T18:29:57.964Z,968.91
2018-06-08T18:30:57.964Z,968.83
2018-06-08T18:31:57.966Z,968.83
2018-06-08T18:32:57.959Z,968.92
2018-06-08T18:33:57.975Z,968.83
2018-06-08T18:34:57.950Z,968.88
2018-06-08T18:35:57.951Z,968.85
2018-06-08T18:36:57.950Z,968.79
2018-06-08T18:37:57.945Z,968.79
2018-06-08T18:38:57.944Z,968.81
2018-06-08T18:39:57.999Z,968.77
2018-06-08T18:40:57.940Z,968.77
2018-06-08T18:41:57.948Z,968.74
2018-06-08T18:42:57.940Z,968.74
2018-06-08T18:43:57.964Z,968.75
2018-06-08T18:44:57.936Z,968.72
2018-06-08T18:45:57.937Z,968.74
2018-06-08T18:46:57.933Z,968.75
2018-06-08T18:47:57.936Z,968.68
2018-06-08T18:48:57.936Z,968.72
2018-06-08T18:49:57.928Z,968.64
2018-06-08T18:50:57.932Z,968.66
2018-06-08T18:51:57.925Z,968.66
2018-06-08T18:52:57.933Z,968.67
2018-06-08T18:53:57.941Z,968.65
2018-06-08T18:54:57.945Z,968.65
2018-06-08T18:55:57.921Z,968.66
2018-06-08T18:56:57.915Z,968.61
2018-06-08T18:57:57.923Z,968.61
2018-06-08T18:58:57.915Z,968.62
2018-06-08T18:59:57.916Z,968.54
2018-06-08T19:00:57.912Z,968.55
2018-06-08T19:01:57.915Z,968.51
2018-06-08T19:02:57.911Z,968.50
2018-06-08T19:03:57.909Z,968.49
2018-06-08T19:04:57.905Z,968.50
2018-06-08T19:05:57.904Z,968.53
2018-06-08T19:06:57.903Z,968.56
2018-06-08T19:07:57.900Z,968.55
2018-06-08T19:08:57.902Z,968.59
2018-06-08T19:09:57.905Z,968.63
2018-06-08T19:10:57.907Z,968.59
2018-06-08T19:11:58.178Z,968.62
2018-06-08T19:12:57.896Z,968.61
2018-06-08T19:13:57.906Z,968.57
2018-06-08T19:14:57.893Z,968.53
2018-06-08T19:15:57.889Z,968.55
2018-06-08T19:16:57.904Z,968.55
2018-06-08T19:17:57.888Z,968.50
2018-06-08T19:18:57.888Z,968.48
2018-06-08T19:19:57.891Z,968.48
2018-06-08T19:20:57.882Z,968.49
2018-06-08T19:21:57.887Z,968.47
2018-06-08T19:22:57.884Z,968.48
2018-06-08T19:23:57.881Z,968.45
2018-06-08T19:24:57.884Z,968.46
2018-06-08T19:25:57.886Z,968.46
2018-06-08T19:26:57.877Z,968.50
2018-06-08T19:27:57.881Z,968.49
2018-06-08T19:28:57.873Z,968.44
2018-06-08T19:29:57.873Z,968.48
2018-06-08T19:30:57.877Z,968.44
2018-06-08T19:31:57.868Z,968.45
2018-06-08T19:32:57.869Z,968.45
2018-06-08T19:33:57.868Z,968.45
2018-06-08T19:34:57.874Z,968.42
2018-06-08T19:35:57.870Z,968.43
2018-06-08T19:36:57.865Z,968.42
2018-06-08T19:37:57.860Z,968.43
2018-06-08T19:38:57.861Z,968.43
2018-06-08T19:39:57.866Z,968.41
2018-06-08T19:40:57.866Z,968.40
2018-06-08T19:41:57.855Z,968.39
2018-06-08T19:42:57.909Z,968.39
2018-06-08T19:43:57.860Z,968.39
2018-06-08T19:44:57.852Z,968.41
2018-06-08T19:45:57.852Z,968.42
2018-06-08T19:46:57.851Z,968.41
2018-06-08T19:47:57.846Z,968.45
2018-06-08T19:48:57.851Z,968.47
2018-06-08T19:49:57.845Z,968.46
2018-06-08T19:50:57.847Z,968.47
2018-06-08T19:51:57.853Z,968.49
2018-06-08T19:52:57.842Z,968.47
2018-06-08T19:53:57.840Z,968.55
2018-06-08T19:54:57.847Z,968.58
2018-06-08T19:55:57.843Z,968.55
2018-06-08T19:56:57.839Z,968.58
2018-06-08T19:57:57.845Z,968.59
2018-06-08T19:58:57.846Z,968.59
2018-06-08T19:59:57.832Z,968.56
2018-06-08T20:00:57.836Z,968.56
2018-06-08T20:01:57.844Z,968.57
2018-06-08T20:02:57.829Z,968.58
2018-06-08T20:03:57.836Z,968.56
2018-06-08T20:04:57.835Z,968.59
2018-06-08T20:05:57.831Z,968.60
2018-06-08T20:06:57.847Z,968.63
2018-06-08T20:07:57.826Z,968.72
2018-06-08T20:08:57.822Z,968.76
2018-06-08T20:09:57.827Z,968.80
2018-06-08T20:10:57.829Z,968.83
2018-06-08T20:11:57.824Z,968.93
2018-06-08T20:12:57.819Z,968.97
2018-06-08T20:13:57.822Z,969.00
2018-06-08T20:14:57.815Z,969.05
2018-06-08T20:15:57.837Z,969.11
2018-06-08T20:16:57.841Z,969.14
2018-06-08T20:17:57.814Z,969.19
2018-06-08T20:18:57.854Z,969.22
2018-06-08T20:19:57.816Z,969.23
2018-06-08T20:20:57.817Z,969.23
2018-06-08T20:21:57.803Z,969.28
2018-06-08T20:22:57.811Z,969.28
2018-06-08T20:23:57.800Z,969.33
2018-06-08T20:24:57.801Z,969.34
2018-06-08T20:25:57.800Z,969.37
2018-06-08T20:26:57.801Z,969.37
2018-06-08T20:27:57.794Z,969.38
2018-06-08T20:28:57.793Z,969.38
2018-06-08T20:29:57.796Z,969.39
2018-06-08T20:30:57.795Z,969.43
2018-06-08T20:31:57.792Z,969.46
2018-06-08T20:32:57.785Z,969.44
2018-06-08T20:33:57.789Z,969.47
2018-06-08T20:34:57.786Z,969.47
2018-06-08T20:35:57.781Z,969.47
2018-06-08T20:36:57.786Z,969.46
2018-06-08T20:37:57.800Z,969.50
2018-06-08T20:38:57.797Z,969.48
2018-06-08T20:39:57.783Z,969.47
2018-06-08T20:40:57.777Z,969.46
2018-06-08T20:41:57.784Z,969.48
2018-06-08T20:42:57.782Z,969.47
2018-06-08T20:43:57.772Z,969.53
2018-06-08T20:44:57.773Z,969.47
2018-06-08T20:45:57.811Z,969.46
2018-06-08T20:46:57.770Z,969.47
2018-06-08T20:47:57.769Z,969.45
2018-06-08T20:48:57.778Z,969.48
2018-06-08T20:49:57.764Z,969.45
2018-06-08T20:50:57.765Z,969.46
2018-06-08T20:51:57.765Z,969.48
2018-06-08T20:52:57.768Z,969.51
2018-06-08T20:53:57.758Z,969.45
2018-06-08T20:54:57.759Z,969.46
2018-06-08T20:55:57.766Z,969.46
2018-06-08T20:56:57.772Z,969.46
2018-06-08T20:57:57.769Z,969.38
2018-06-08T20:58:57.774Z,969.42
2018-06-08T20:59:57.764Z,969.36
2018-06-08T21:00:57.751Z,969.39
2018-06-08T21:01:57.771Z,969.35
2018-06-08T21:02:57.748Z,969.35
2018-06-08T21:03:57.749Z,969.33
2018-06-08T21:04:57.746Z,969.34
2018-06-08T21:05:57.753Z,969.31
2018-06-08T21:06:57.740Z,969.31
2018-06-08T21:07:57.747Z,969.33
2018-06-08T21:08:57.735Z,969.30
2018-06-08T21:09:57.740Z,969.32
2018-06-08T21:10:57.736Z,969.34
2018-06-08T21:11:57.736Z,969.33
2018-06-08T21:12:57.732Z,969.32
2018-06-08T21:13:57.734Z,969.31
2018-06-08T21:14:57.730Z,969.35
2018-06-08T21:15:57.724Z,969.34
2018-06-08T21:16:57.724Z,969.30
2018-06-08T21:17:57.726Z,969.31
2018-06-08T21:18:57.728Z,969.29
2018-06-08T21:19:57.732Z,969.32
2018-06-08T21:20:57.720Z,969.28
2018-06-08T21:21:57.723Z,969.26
2018-06-08T21:22:57.732Z,969.27
2018-06-08T21:23:57.722Z,969.27
2018-06-08T21:24:57.714Z,969.24
2018-06-08T21:25:57.721Z,969.26
2018-06-08T21:26:57.739Z,969.20
2018-06-08T21:27:57.722Z,969.18
2018-06-08T21:28:57.711Z,969.19
2018-06-08T21:29:57.714Z,969.16
2018-06-08T21:30:57.705Z,969.18
2018-06-08T21:31:57.718Z,969.19
2018-06-08T21:32:57.701Z,969.17
2018-06-08T21:33:57.746Z,969.16
2018-06-08T21:34:57.699Z,969.17
2018-06-08T21:35:57.706Z,969.20
2018-06-08T21:36:57.710Z,969.19
2018-06-08T21:37:57.699Z,969.21
2018-06-08T21:38:57.699Z,969.19
2018-06-08T21:39:57.693Z,969.19
2018-06-08T21:40:57.689Z,969.20
2018-06-08T21:41:57.688Z,969.18
2018-06-08T21:42:57.690Z,969.21
2018-06-08T21:43:57.689Z,969.23
2018-06-08T21:44:57.692Z,969.21
2018-06-08T21:45:57.683Z,969.22
2018-06-08T21:46:57.683Z,969.19
2018-06-08T21:47:57.679Z,969.21
2018-06-08T21:48:57.680Z,969.16
2018-06-08T21:49:57.686Z,969.14
2018-06-08T21:50:57.683Z,969.13
2018-06-08T21:51:57.678Z,969.11
2018-06-08T21:52:57.678Z,969.04
2018-06-08T21:53:57.668Z,969.04
2018-06-08T21:54:57.672Z,969.05
2018-06-08T21:55:57.667Z,969.05
2018-06-08T21:56:57.669Z,969.04
2018-06-08T21:57:57.664Z,968.99
2018-06-08T21:58:57.671Z,969.03
2018-06-08T21:59:57.683Z,969.04
2018-06-08T22:00:57.667Z,969.02
2018-06-08T22:01:57.673Z,968.97
2018-06-08T22:02:57.658Z,968.96
2018-06-08T22:03:57.655Z,968.96
2018-06-08T22:04:57.655Z,968.97
2018-06-08T22:05:57.649Z,968.95
2018-06-08T22:06:57.680Z,968.96
2018-06-08T22:07:57.645Z,968.93
2018-06-08T22:08:57.644Z,968.96
2018-06-08T22:09:57.644Z,968.95
2018-06-08T22:10:57.647Z,968.91
2018-06-08T22:11:57.640Z,968.91
2018-06-08T22:12:57.641Z,968.85
2018-06-08T22:13:57.641Z,968.85
2018-06-08T22:14:57.634Z,968.85
2018-06-08T22:15:57.637Z,968.82
2018-06-08T22:16:57.645Z,968.80
2018-06-08T22:17:57.631Z,968.82
2018-06-08T22:18:57.633Z,968.80
2018-06-08T22:19:57.627Z,968.84
2018-06-08T22:20:57.638Z,968.84
2018-06-08T22:21:57.633Z,968.84
2018-06-08T22:22:57.623Z,968.82
2018-06-08T22:23:57.621Z,968.84
2018-06-08T22:24:57.618Z,968.83
2018-06-08T22:25:57.618Z,968.81
2018-06-08T22:26:57.623Z,968.82
2018-06-08T22:27:57.627Z,968.85
2018-06-08T22:28:57.619Z,968.83
2018-06-08T22:29:57.635Z,968.87
2018-06-08T22:30:57.607Z,968.85
2018-06-08T22:31:57.604Z,968.86
2018-06-08T22:32:57.604Z,968.86
2018-06-08T22:33:57.608Z,968.87
2018-06-08T22:34:57.606Z,968.84
2018-06-08T22:35:57.596Z,968.87
2018-06-08T22:36:57.596Z,968.87
2018-06-08T22:37:57.596Z,968.90
2018-06-08T22:38:57.603Z,968.88
2018-06-08T22:39:57.601Z,968.86
2018-06-08T22:40:57.632Z,968.91
2018-06-08T22:41:57.649Z,968.91
2018-06-08T22:42:57.587Z,968.92
2018-06-08T22:43:57.583Z,968.88
2018-06-08T22:44:57.580Z,968.93
2018-06-08T22:45:57.590Z,968.94
2018-06-08T22:46:57.581Z,968.89
2018-06-08T22:47:57.577Z,968.92
2018-06-08T22:48:57.584Z,968.88
2018-06-08T22:49:57.589Z,968.94
2018-06-08T22:50:57.581Z,968.97
2018-06-08T22:51:57.569Z,968.95
2018-06-08T22:52:57.570Z,968.94
2018-06-08T22:53:57.568Z,968.95
2018-06-08T22:54:57.566Z,968.94
2018-06-08T22:55:57.564Z,968.94
2018-06-08T22:56:57.574Z,968.96
2018-06-08T22:57:57.559Z,968.94
2018-06-08T22:58:57.563Z,968.93
2018-06-08T22:59:57.565Z,968.98
2018-06-08T23:00:57.561Z,968.99
2018-06-08T23:01:57.580Z,968.98
2018-06-08T23:02:57.579Z,969.00
2018-06-08T23:03:57.583Z,969.00
2018-06-08T23:04:57.549Z,969.04
2018-06-08T23:05:57.549Z,968.97
2018-06-08T23:06:57.557Z,969.00
2018-06-08T23:07:57.548Z,968.95
2018-06-08T23:08:57.556Z,968.94
2018-06-08T23:09:57.541Z,968.97
2018-06-08T23:10:57.542Z,968.92
2018-06-08T23:11:57.537Z,968.92
2018-06-08T23:12:57.551Z,968.89
2018-06-08T23:13:57.532Z,968.92
2018-06-08T23:14:57.538Z,968.91
2018-06-08T23:15:57.545Z,968.91
2018-06-08T23:16:57.575Z,968.88
2018-06-08T23:17:57.527Z,968.90
2018-06-08T23:18:57.528Z,968.90
2018-06-08T23:19:57.525Z,968.83
2018-06-08T23:20:57.529Z,968.80
2018-06-08T23:21:57.522Z,968.80
2018-06-08T23:22:57.520Z,968.81
2018-06-08T23:23:57.518Z,968.81
2018-06-08T23:24:57.523Z,968.81
2018-06-08T23:25:57.522Z,968.85
2018-06-08T23:26:57.512Z,968.81
2018-06-08T23:27:57.521Z,968.79
2018-06-08T23:28:57.522Z,968.83
2018-06-08T23:29:57.546Z,968.85
2018-06-08T23:30:57.507Z,968.88
2018-06-08T23:31:57.506Z,968.87
2018-06-08T23:32:57.503Z,968.93
2018-06-08T23:33:57.507Z,968.93
2018-06-08T23:34:57.518Z,968.99
2018-06-08T23:35:57.508Z,968.98
2018-06-08T23:36:57.506Z,969.03
2018-06-08T23:37:57.497Z,969.05
2018-06-08T23:38:57.500Z,969.06